sensor_id;sensor_type;location;lat;lon;timestamp;P1;durP1;ratioP1;P2;durP2;ratioP2
29916;SDS011;16786;49.466;11.068;2024-01-30T00:00:37;25.35;;;12.27;;
29916;SDS011;16786;49.466;11.068;2024-01-30T00:03:05;19.90;;;11.43;;
29916;SDS011;16786;49.466;11.068;2024-01-30T00:05:32;20.90;;;10.60;;
29916;SDS011;16786;49.466;11.068;2024-01-30T00:07:59;21.83;;;11.10;;
29916;SDS011;16786;49.466;11.068;2024-01-30T00:10:26;22.13;;;12.05;;
29916;SDS011;16786;49.466;11.068;2024-01-30T00:12:53;22.52;;;11.98;;
29916;SDS011;16786;49.466;11.068;2024-01-30T00:15:20;21.15;;;12.05;;
29916;SDS011;16786;49.466;11.068;2024-01-30T00:17:47;20.10;;;11.73;;
29916;SDS011;16786;49.466;11.068;2024-01-30T00:20:14;22.35;;;11.98;;
29916;SDS011;16786;49.466;11.068;2024-01-30T00:22:41;20.17;;;10.55;;
29916;SDS011;16786;49.466;11.068;2024-01-30T00:25:08;18.17;;;11.82;;
29916;SDS011;16786;49.466;11.068;2024-01-30T00:27:35;16.60;;;11.35;;
29916;SDS011;16786;49.466;11.068;2024-01-30T00:30:02;18.42;;;10.75;;
29916;SDS011;16786;49.466;11.068;2024-01-30T00:32:30;15.77;;;9.98;;
29916;SDS011;16786;49.466;11.068;2024-01-30T00:34:57;21.00;;;11.75;;
29916;SDS011;16786;49.466;11.068;2024-01-30T00:37:24;16.80;;;10.82;;
29916;SDS011;16786;49.466;11.068;2024-01-30T00:39:51;20.23;;;10.57;;
29916;SDS011;16786;49.466;11.068;2024-01-30T00:42:18;18.08;;;10.98;;
29916;SDS011;16786;49.466;11.068;2024-01-30T00:44:45;16.10;;;9.90;;
29916;SDS011;16786;49.466;11.068;2024-01-30T00:47:12;14.77;;;9.57;;
29916;SDS011;16786;49.466;11.068;2024-01-30T00:49:39;21.33;;;10.55;;
29916;SDS011;16786;49.466;11.068;2024-01-30T00:52:06;17.48;;;10.00;;
29916;SDS011;16786;49.466;11.068;2024-01-30T00:54:33;18.90;;;10.18;;
29916;SDS011;16786;49.466;11.068;2024-01-30T00:57:00;15.95;;;10.00;;
29916;SDS011;16786;49.466;11.068;2024-01-30T00:59:27;16.95;;;10.63;;
29916;SDS011;16786;49.466;11.068;2024-01-30T01:01:54;17.42;;;9.65;;
29916;SDS011;16786;49.466;11.068;2024-01-30T01:04:21;15.00;;;9.68;;
29916;SDS011;16786;49.466;11.068;2024-01-30T01:06:48;18.52;;;9.27;;
29916;SDS011;16786;49.466;11.068;2024-01-30T01:09:16;15.65;;;9.02;;
29916;SDS011;16786;49.466;11.068;2024-01-30T01:11:43;17.48;;;9.52;;
29916;SDS011;16786;49.466;11.068;2024-01-30T01:14:10;14.68;;;9.07;;
29916;SDS011;16786;49.466;11.068;2024-01-30T01:16:37;13.93;;;8.90;;
29916;SDS011;16786;49.466;11.068;2024-01-30T01:19:04;13.57;;;9.18;;
29916;SDS011;16786;49.466;11.068;2024-01-30T01:21:31;12.70;;;8.90;;
29916;SDS011;16786;49.466;11.068;2024-01-30T01:23:59;14.57;;;8.95;;
29916;SDS011;16786;49.466;11.068;2024-01-30T01:26:26;15.00;;;8.35;;
29916;SDS011;16786;49.466;11.068;2024-01-30T01:28:52;13.90;;;8.63;;
29916;SDS011;16786;49.466;11.068;2024-01-30T01:31:19;12.55;;;8.27;;
29916;SDS011;16786;49.466;11.068;2024-01-30T01:33:49;18.77;;;9.73;;
29916;SDS011;16786;49.466;11.068;2024-01-30T01:36:16;15.98;;;8.50;;
29916;SDS011;16786;49.466;11.068;2024-01-30T01:38:43;13.88;;;8.52;;
29916;SDS011;16786;49.466;11.068;2024-01-30T01:41:10;13.23;;;8.35;;
29916;SDS011;16786;49.466;11.068;2024-01-30T01:43:37;16.50;;;8.50;;
29916;SDS011;16786;49.466;11.068;2024-01-30T01:46:06;13.30;;;8.63;;
29916;SDS011;16786;49.466;11.068;2024-01-30T01:48:33;16.23;;;10.07;;
29916;SDS011;16786;49.466;11.068;2024-01-30T01:51:01;13.93;;;8.50;;
29916;SDS011;16786;49.466;11.068;2024-01-30T01:53:29;16.77;;;8.98;;
29916;SDS011;16786;49.466;11.068;2024-01-30T01:55:56;14.35;;;8.43;;
29916;SDS011;16786;49.466;11.068;2024-01-30T01:58:23;14.82;;;7.45;;
29916;SDS011;16786;49.466;11.068;2024-01-30T02:00:55;12.38;;;7.65;;
29916;SDS011;16786;49.466;11.068;2024-01-30T02:03:23;16.77;;;8.75;;
29916;SDS011;16786;49.466;11.068;2024-01-30T02:05:51;14.05;;;8.18;;
29916;SDS011;16786;49.466;11.068;2024-01-30T02:08:18;13.50;;;7.88;;
29916;SDS011;16786;49.466;11.068;2024-01-30T02:10:45;12.88;;;8.52;;
29916;SDS011;16786;49.466;11.068;2024-01-30T02:13:12;12.68;;;8.50;;
29916;SDS011;16786;49.466;11.068;2024-01-30T02:15:39;12.40;;;8.25;;
29916;SDS011;16786;49.466;11.068;2024-01-30T02:18:06;13.80;;;8.65;;
29916;SDS011;16786;49.466;11.068;2024-01-30T02:20:34;10.98;;;7.97;;
29916;SDS011;16786;49.466;11.068;2024-01-30T02:23:02;15.07;;;7.75;;
29916;SDS011;16786;49.466;11.068;2024-01-30T02:25:32;12.45;;;8.60;;
29916;SDS011;16786;49.466;11.068;2024-01-30T02:28:00;15.18;;;8.82;;
29916;SDS011;16786;49.466;11.068;2024-01-30T02:30:27;12.23;;;8.27;;
29916;SDS011;16786;49.466;11.068;2024-01-30T02:32:54;12.05;;;8.25;;
29916;SDS011;16786;49.466;11.068;2024-01-30T02:35:21;12.85;;;7.97;;
29916;SDS011;16786;49.466;11.068;2024-01-30T02:37:48;12.75;;;8.73;;
29916;SDS011;16786;49.466;11.068;2024-01-30T02:40:15;14.18;;;8.32;;
29916;SDS011;16786;49.466;11.068;2024-01-30T02:42:42;13.95;;;8.77;;
29916;SDS011;16786;49.466;11.068;2024-01-30T02:45:10;12.85;;;7.90;;
29916;SDS011;16786;49.466;11.068;2024-01-30T02:47:38;14.85;;;8.90;;
29916;SDS011;16786;49.466;11.068;2024-01-30T02:50:06;11.82;;;7.95;;
29916;SDS011;16786;49.466;11.068;2024-01-30T02:52:34;14.05;;;8.07;;
29916;SDS011;16786;49.466;11.068;2024-01-30T02:55:01;12.75;;;7.97;;
29916;SDS011;16786;49.466;11.068;2024-01-30T02:57:29;13.07;;;8.30;;
29916;SDS011;16786;49.466;11.068;2024-01-30T02:59:56;14.57;;;8.15;;
29916;SDS011;16786;49.466;11.068;2024-01-30T03:02:22;11.20;;;7.70;;
29916;SDS011;16786;49.466;11.068;2024-01-30T03:04:50;14.70;;;8.52;;
29916;SDS011;16786;49.466;11.068;2024-01-30T03:07:17;13.05;;;8.13;;
29916;SDS011;16786;49.466;11.068;2024-01-30T03:09:44;13.95;;;8.57;;
29916;SDS011;16786;49.466;11.068;2024-01-30T03:12:11;13.73;;;8.77;;
29916;SDS011;16786;49.466;11.068;2024-01-30T03:14:38;12.52;;;7.93;;
29916;SDS011;16786;49.466;11.068;2024-01-30T03:17:05;12.65;;;9.02;;
29916;SDS011;16786;49.466;11.068;2024-01-30T03:19:32;17.85;;;8.77;;
29916;SDS011;16786;49.466;11.068;2024-01-30T03:21:59;13.75;;;8.15;;
29916;SDS011;16786;49.466;11.068;2024-01-30T03:24:26;14.20;;;9.13;;
29916;SDS011;16786;49.466;11.068;2024-01-30T03:26:54;12.30;;;8.75;;
29916;SDS011;16786;49.466;11.068;2024-01-30T03:29:21;14.68;;;8.48;;
29916;SDS011;16786;49.466;11.068;2024-01-30T03:31:48;13.75;;;8.73;;
29916;SDS011;16786;49.466;11.068;2024-01-30T03:34:15;17.45;;;9.05;;
29916;SDS011;16786;49.466;11.068;2024-01-30T03:36:42;16.80;;;8.90;;
29916;SDS011;16786;49.466;11.068;2024-01-30T03:39:09;13.15;;;8.73;;
29916;SDS011;16786;49.466;11.068;2024-01-30T03:41:36;14.40;;;8.90;;
29916;SDS011;16786;49.466;11.068;2024-01-30T03:44:03;12.38;;;8.20;;
29916;SDS011;16786;49.466;11.068;2024-01-30T03:46:30;11.45;;;7.60;;
29916;SDS011;16786;49.466;11.068;2024-01-30T03:48:57;17.27;;;8.70;;
29916;SDS011;16786;49.466;11.068;2024-01-30T03:51:24;13.93;;;9.25;;
29916;SDS011;16786;49.466;11.068;2024-01-30T03:53:51;14.07;;;8.82;;
29916;SDS011;16786;49.466;11.068;2024-01-30T03:56:18;16.23;;;9.82;;
29916;SDS011;16786;49.466;11.068;2024-01-30T03:58:45;19.05;;;10.07;;
29916;SDS011;16786;49.466;11.068;2024-01-30T04:01:15;14.60;;;8.85;;
29916;SDS011;16786;49.466;11.068;2024-01-30T04:03:42;16.70;;;9.20;;
29916;SDS011;16786;49.466;11.068;2024-01-30T04:06:10;18.95;;;9.73;;
29916;SDS011;16786;49.466;11.068;2024-01-30T04:08:38;15.27;;;9.27;;
29916;SDS011;16786;49.466;11.068;2024-01-30T04:11:05;14.35;;;9.68;;
29916;SDS011;16786;49.466;11.068;2024-01-30T04:13:32;14.82;;;9.43;;
29916;SDS011;16786;49.466;11.068;2024-01-30T04:16:00;16.67;;;9.40;;
29916;SDS011;16786;49.466;11.068;2024-01-30T04:18:30;16.92;;;9.90;;
29916;SDS011;16786;49.466;11.068;2024-01-30T04:20:57;16.58;;;10.27;;
29916;SDS011;16786;49.466;11.068;2024-01-30T04:23:24;14.93;;;9.27;;
29916;SDS011;16786;49.466;11.068;2024-01-30T04:25:51;16.08;;;9.88;;
29916;SDS011;16786;49.466;11.068;2024-01-30T04:28:18;14.45;;;9.23;;
29916;SDS011;16786;49.466;11.068;2024-01-30T04:30:45;13.60;;;9.32;;
29916;SDS011;16786;49.466;11.068;2024-01-30T04:33:12;15.25;;;9.93;;
29916;SDS011;16786;49.466;11.068;2024-01-30T04:35:39;12.65;;;9.55;;
29916;SDS011;16786;49.466;11.068;2024-01-30T04:38:06;16.67;;;9.63;;
29916;SDS011;16786;49.466;11.068;2024-01-30T04:40:33;16.15;;;9.70;;
29916;SDS011;16786;49.466;11.068;2024-01-30T04:43:00;17.13;;;10.20;;
29916;SDS011;16786;49.466;11.068;2024-01-30T04:45:27;16.80;;;10.50;;
29916;SDS011;16786;49.466;11.068;2024-01-30T04:47:55;22.00;;;12.32;;
29916;SDS011;16786;49.466;11.068;2024-01-30T04:50:23;19.40;;;10.70;;
29916;SDS011;16786;49.466;11.068;2024-01-30T04:52:50;15.15;;;9.75;;
29916;SDS011;16786;49.466;11.068;2024-01-30T04:55:17;16.58;;;10.05;;
29916;SDS011;16786;49.466;11.068;2024-01-30T04:57:48;18.87;;;10.47;;
29916;SDS011;16786;49.466;11.068;2024-01-30T05:00:15;16.60;;;10.75;;
29916;SDS011;16786;49.466;11.068;2024-01-30T05:02:42;15.48;;;9.57;;
29916;SDS011;16786;49.466;11.068;2024-01-30T05:05:09;17.70;;;10.90;;
29916;SDS011;16786;49.466;11.068;2024-01-30T05:07:37;16.48;;;10.63;;
29916;SDS011;16786;49.466;11.068;2024-01-30T05:10:05;16.08;;;10.93;;
29916;SDS011;16786;49.466;11.068;2024-01-30T05:12:32;20.52;;;9.77;;
29916;SDS011;16786;49.466;11.068;2024-01-30T05:14:59;19.13;;;10.50;;
29916;SDS011;16786;49.466;11.068;2024-01-30T05:17:26;16.42;;;10.43;;
29916;SDS011;16786;49.466;11.068;2024-01-30T05:19:53;15.25;;;10.10;;
29916;SDS011;16786;49.466;11.068;2024-01-30T05:22:21;16.17;;;9.98;;
29916;SDS011;16786;49.466;11.068;2024-01-30T05:24:48;18.73;;;11.57;;
29916;SDS011;16786;49.466;11.068;2024-01-30T05:27:15;16.17;;;10.77;;
29916;SDS011;16786;49.466;11.068;2024-01-30T05:29:42;17.75;;;11.10;;
29916;SDS011;16786;49.466;11.068;2024-01-30T05:32:09;17.05;;;11.07;;
29916;SDS011;16786;49.466;11.068;2024-01-30T05:34:37;13.63;;;9.82;;
29916;SDS011;16786;49.466;11.068;2024-01-30T05:37:04;20.00;;;10.20;;
29916;SDS011;16786;49.466;11.068;2024-01-30T05:39:31;16.75;;;10.85;;
29916;SDS011;16786;49.466;11.068;2024-01-30T05:41:59;15.93;;;11.02;;
29916;SDS011;16786;49.466;11.068;2024-01-30T05:44:26;20.98;;;12.23;;
29916;SDS011;16786;49.466;11.068;2024-01-30T05:46:53;17.48;;;10.63;;
29916;SDS011;16786;49.466;11.068;2024-01-30T05:49:20;16.38;;;10.48;;
29916;SDS011;16786;49.466;11.068;2024-01-30T05:51:47;18.40;;;11.75;;
29916;SDS011;16786;49.466;11.068;2024-01-30T05:54:15;20.90;;;11.65;;
29916;SDS011;16786;49.466;11.068;2024-01-30T05:56:43;20.25;;;11.90;;
29916;SDS011;16786;49.466;11.068;2024-01-30T05:59:10;17.83;;;11.60;;
29916;SDS011;16786;49.466;11.068;2024-01-30T06:01:37;16.80;;;12.10;;
29916;SDS011;16786;49.466;11.068;2024-01-30T06:04:04;18.17;;;12.10;;
29916;SDS011;16786;49.466;11.068;2024-01-30T06:06:32;19.60;;;11.52;;
29916;SDS011;16786;49.466;11.068;2024-01-30T06:08:59;19.90;;;12.32;;
29916;SDS011;16786;49.466;11.068;2024-01-30T06:11:26;18.60;;;12.05;;
29916;SDS011;16786;49.466;11.068;2024-01-30T06:13:53;23.15;;;13.48;;
29916;SDS011;16786;49.466;11.068;2024-01-30T06:16:20;21.52;;;13.32;;
29916;SDS011;16786;49.466;11.068;2024-01-30T06:18:48;19.30;;;12.93;;
29916;SDS011;16786;49.466;11.068;2024-01-30T06:21:15;21.38;;;13.48;;
29916;SDS011;16786;49.466;11.068;2024-01-30T06:23:42;20.13;;;13.18;;
29916;SDS011;16786;49.466;11.068;2024-01-30T06:26:09;21.63;;;13.93;;
29916;SDS011;16786;49.466;11.068;2024-01-30T06:28:36;16.88;;;12.18;;
29916;SDS011;16786;49.466;11.068;2024-01-30T06:31:03;23.30;;;14.10;;
29916;SDS011;16786;49.466;11.068;2024-01-30T06:33:31;19.73;;;12.73;;
29916;SDS011;16786;49.466;11.068;2024-01-30T06:35:58;21.02;;;12.90;;
29916;SDS011;16786;49.466;11.068;2024-01-30T06:38:24;19.58;;;12.18;;
29916;SDS011;16786;49.466;11.068;2024-01-30T06:40:51;19.38;;;12.57;;
29916;SDS011;16786;49.466;11.068;2024-01-30T06:43:18;22.80;;;13.60;;
29916;SDS011;16786;49.466;11.068;2024-01-30T06:45:45;23.92;;;12.68;;
29916;SDS011;16786;49.466;11.068;2024-01-30T06:48:13;19.38;;;12.90;;
29916;SDS011;16786;49.466;11.068;2024-01-30T06:50:40;23.55;;;14.07;;
29916;SDS011;16786;49.466;11.068;2024-01-30T06:53:07;20.02;;;12.30;;
29916;SDS011;16786;49.466;11.068;2024-01-30T06:55:34;19.83;;;12.98;;
29916;SDS011;16786;49.466;11.068;2024-01-30T06:58:00;26.10;;;13.35;;
29916;SDS011;16786;49.466;11.068;2024-01-30T07:00:27;20.42;;;12.70;;
29916;SDS011;16786;49.466;11.068;2024-01-30T07:02:54;22.42;;;12.95;;
29916;SDS011;16786;49.466;11.068;2024-01-30T07:05:21;21.05;;;13.05;;
29916;SDS011;16786;49.466;11.068;2024-01-30T07:07:48;27.23;;;16.65;;
29916;SDS011;16786;49.466;11.068;2024-01-30T07:10:15;23.90;;;14.65;;
29916;SDS011;16786;49.466;11.068;2024-01-30T07:12:42;25.55;;;13.68;;
29916;SDS011;16786;49.466;11.068;2024-01-30T07:15:10;28.38;;;15.00;;
29916;SDS011;16786;49.466;11.068;2024-01-30T07:17:37;20.50;;;13.82;;
29916;SDS011;16786;49.466;11.068;2024-01-30T07:20:04;31.08;;;14.40;;
29916;SDS011;16786;49.466;11.068;2024-01-30T07:22:33;25.65;;;14.98;;
29916;SDS011;16786;49.466;11.068;2024-01-30T07:25:00;26.25;;;14.90;;
29916;SDS011;16786;49.466;11.068;2024-01-30T07:27:27;25.45;;;15.13;;
29916;SDS011;16786;49.466;11.068;2024-01-30T07:29:54;26.30;;;14.88;;
29916;SDS011;16786;49.466;11.068;2024-01-30T07:32:21;26.15;;;15.70;;
29916;SDS011;16786;49.466;11.068;2024-01-30T07:34:48;28.00;;;15.52;;
29916;SDS011;16786;49.466;11.068;2024-01-30T07:37:32;26.90;;;15.50;;
29916;SDS011;16786;49.466;11.068;2024-01-30T07:40:00;28.17;;;15.13;;
29916;SDS011;16786;49.466;11.068;2024-01-30T07:42:28;22.90;;;15.45;;
29916;SDS011;16786;49.466;11.068;2024-01-30T07:44:55;23.83;;;15.23;;
29916;SDS011;16786;49.466;11.068;2024-01-30T07:47:22;25.17;;;15.98;;
29916;SDS011;16786;49.466;11.068;2024-01-30T07:49:49;26.48;;;15.23;;
29916;SDS011;16786;49.466;11.068;2024-01-30T07:52:16;23.30;;;15.25;;
29916;SDS011;16786;49.466;11.068;2024-01-30T07:54:43;25.70;;;16.00;;
29916;SDS011;16786;49.466;11.068;2024-01-30T07:57:12;26.65;;;16.75;;
29916;SDS011;16786;49.466;11.068;2024-01-30T07:59:39;29.73;;;16.23;;
29916;SDS011;16786;49.466;11.068;2024-01-30T08:02:08;22.73;;;15.13;;
29916;SDS011;16786;49.466;11.068;2024-01-30T08:04:35;25.77;;;15.95;;
29916;SDS011;16786;49.466;11.068;2024-01-30T08:07:02;29.30;;;18.35;;
29916;SDS011;16786;49.466;11.068;2024-01-30T08:09:29;30.45;;;18.05;;
29916;SDS011;16786;49.466;11.068;2024-01-30T08:11:56;24.33;;;15.50;;
29916;SDS011;16786;49.466;11.068;2024-01-30T08:14:23;28.80;;;15.48;;
29916;SDS011;16786;49.466;11.068;2024-01-30T08:16:52;31.98;;;16.40;;
29916;SDS011;16786;49.466;11.068;2024-01-30T08:19:19;26.70;;;17.85;;
29916;SDS011;16786;49.466;11.068;2024-01-30T08:21:46;33.30;;;18.25;;
29916;SDS011;16786;49.466;11.068;2024-01-30T08:24:13;28.73;;;17.88;;
29916;SDS011;16786;49.466;11.068;2024-01-30T08:26:40;26.58;;;17.05;;
29916;SDS011;16786;49.466;11.068;2024-01-30T08:29:07;25.80;;;16.38;;
29916;SDS011;16786;49.466;11.068;2024-01-30T08:31:34;24.45;;;17.25;;
29916;SDS011;16786;49.466;11.068;2024-01-30T08:34:01;27.92;;;17.48;;
29916;SDS011;16786;49.466;11.068;2024-01-30T08:36:29;28.10;;;16.65;;
29916;SDS011;16786;49.466;11.068;2024-01-30T08:38:56;25.30;;;16.23;;
29916;SDS011;16786;49.466;11.068;2024-01-30T08:41:28;28.50;;;17.67;;
29916;SDS011;16786;49.466;11.068;2024-01-30T08:43:55;30.35;;;19.13;;
29916;SDS011;16786;49.466;11.068;2024-01-30T08:46:22;26.20;;;16.92;;
29916;SDS011;16786;49.466;11.068;2024-01-30T08:48:49;27.33;;;17.50;;
29916;SDS011;16786;49.466;11.068;2024-01-30T08:51:16;25.83;;;16.80;;
29916;SDS011;16786;49.466;11.068;2024-01-30T08:53:43;35.30;;;18.50;;
29916;SDS011;16786;49.466;11.068;2024-01-30T08:56:10;27.13;;;16.58;;
29916;SDS011;16786;49.466;11.068;2024-01-30T08:58:37;27.30;;;17.13;;
29916;SDS011;16786;49.466;11.068;2024-01-30T09:01:05;21.80;;;15.82;;
29916;SDS011;16786;49.466;11.068;2024-01-30T09:03:32;28.40;;;17.73;;
29916;SDS011;16786;49.466;11.068;2024-01-30T09:06:00;36.28;;;19.73;;
29916;SDS011;16786;49.466;11.068;2024-01-30T09:08:27;33.63;;;17.85;;
29916;SDS011;16786;49.466;11.068;2024-01-30T09:10:54;24.90;;;16.52;;
29916;SDS011;16786;49.466;11.068;2024-01-30T09:13:21;25.30;;;16.67;;
29916;SDS011;16786;49.466;11.068;2024-01-30T09:15:48;24.88;;;16.30;;
29916;SDS011;16786;49.466;11.068;2024-01-30T09:18:15;30.13;;;17.48;;
29916;SDS011;16786;49.466;11.068;2024-01-30T09:20:42;26.45;;;16.80;;
29916;SDS011;16786;49.466;11.068;2024-01-30T09:23:09;27.65;;;16.58;;
29916;SDS011;16786;49.466;11.068;2024-01-30T09:25:37;24.08;;;16.23;;
29916;SDS011;16786;49.466;11.068;2024-01-30T09:28:04;21.70;;;15.75;;
29916;SDS011;16786;49.466;11.068;2024-01-30T09:30:32;22.33;;;16.15;;
29916;SDS011;16786;49.466;11.068;2024-01-30T09:32:59;27.60;;;16.75;;
29916;SDS011;16786;49.466;11.068;2024-01-30T09:35:26;25.08;;;15.98;;
29916;SDS011;16786;49.466;11.068;2024-01-30T09:37:53;24.40;;;15.68;;
29916;SDS011;16786;49.466;11.068;2024-01-30T09:40:20;23.42;;;15.88;;
29916;SDS011;16786;49.466;11.068;2024-01-30T09:42:47;24.10;;;16.15;;
29916;SDS011;16786;49.466;11.068;2024-01-30T09:45:17;25.13;;;16.52;;
29916;SDS011;16786;49.466;11.068;2024-01-30T09:47:45;23.33;;;16.75;;
29916;SDS011;16786;49.466;11.068;2024-01-30T09:50:13;27.27;;;16.15;;
29916;SDS011;16786;49.466;11.068;2024-01-30T09:52:42;23.63;;;16.33;;
29916;SDS011;16786;49.466;11.068;2024-01-30T09:55:10;22.33;;;16.27;;
29916;SDS011;16786;49.466;11.068;2024-01-30T09:57:37;29.35;;;17.75;;
29916;SDS011;16786;49.466;11.068;2024-01-30T10:00:05;27.65;;;16.92;;
29916;SDS011;16786;49.466;11.068;2024-01-30T10:02:39;25.35;;;18.10;;
29916;SDS011;16786;49.466;11.068;2024-01-30T10:05:07;20.75;;;16.27;;
29916;SDS011;16786;49.466;11.068;2024-01-30T10:07:35;27.00;;;16.95;;
29916;SDS011;16786;49.466;11.068;2024-01-30T10:10:02;26.65;;;16.70;;
29916;SDS011;16786;49.466;11.068;2024-01-30T10:12:31;22.75;;;17.35;;
29916;SDS011;16786;49.466;11.068;2024-01-30T10:14:58;21.95;;;16.48;;
29916;SDS011;16786;49.466;11.068;2024-01-30T10:17:26;21.48;;;16.42;;
29916;SDS011;16786;49.466;11.068;2024-01-30T10:19:59;28.13;;;17.42;;
29916;SDS011;16786;49.466;11.068;2024-01-30T10:22:28;23.27;;;16.52;;
29916;SDS011;16786;49.466;11.068;2024-01-30T10:24:55;26.63;;;16.83;;
29916;SDS011;16786;49.466;11.068;2024-01-30T10:27:26;24.77;;;16.20;;
29916;SDS011;16786;49.466;11.068;2024-01-30T10:29:54;25.63;;;16.60;;
29916;SDS011;16786;49.466;11.068;2024-01-30T10:32:21;21.38;;;16.45;;
29916;SDS011;16786;49.466;11.068;2024-01-30T10:34:48;22.92;;;17.08;;
29916;SDS011;16786;49.466;11.068;2024-01-30T10:37:15;21.45;;;16.05;;
29916;SDS011;16786;49.466;11.068;2024-01-30T10:39:45;23.75;;;16.45;;
29916;SDS011;16786;49.466;11.068;2024-01-30T10:42:13;22.10;;;15.88;;
29916;SDS011;16786;49.466;11.068;2024-01-30T10:44:58;26.88;;;17.40;;
29916;SDS011;16786;49.466;11.068;2024-01-30T10:47:30;26.50;;;17.23;;
29916;SDS011;16786;49.466;11.068;2024-01-30T10:50:00;28.90;;;17.92;;
29916;SDS011;16786;49.466;11.068;2024-01-30T10:52:28;28.60;;;18.92;;
29916;SDS011;16786;49.466;11.068;2024-01-30T10:54:56;29.00;;;18.35;;
29916;SDS011;16786;49.466;11.068;2024-01-30T10:57:25;24.73;;;16.85;;
29916;SDS011;16786;49.466;11.068;2024-01-30T10:59:54;25.08;;;16.77;;
29916;SDS011;16786;49.466;11.068;2024-01-30T11:02:27;25.27;;;17.52;;
29916;SDS011;16786;49.466;11.068;2024-01-30T11:04:56;26.17;;;17.17;;
29916;SDS011;16786;49.466;11.068;2024-01-30T11:07:28;28.65;;;17.67;;
29916;SDS011;16786;49.466;11.068;2024-01-30T11:10:00;22.52;;;16.35;;
29916;SDS011;16786;49.466;11.068;2024-01-30T11:12:32;19.67;;;16.60;;
29916;SDS011;16786;49.466;11.068;2024-01-30T11:20:19;20.48;;;15.57;;
29916;SDS011;16786;49.466;11.068;2024-01-30T11:22:50;21.10;;;15.75;;
29916;SDS011;16786;49.466;11.068;2024-01-30T11:25:22;21.63;;;16.07;;
29916;SDS011;16786;49.466;11.068;2024-01-30T11:27:51;20.98;;;15.88;;
29916;SDS011;16786;49.466;11.068;2024-01-30T11:30:29;23.02;;;16.08;;
29916;SDS011;16786;49.466;11.068;2024-01-30T11:32:59;20.77;;;15.77;;
29916;SDS011;16786;49.466;11.068;2024-01-30T11:35:33;20.17;;;15.43;;
29916;SDS011;16786;49.466;11.068;2024-01-30T11:38:02;25.65;;;16.38;;
29916;SDS011;16786;49.466;11.068;2024-01-30T11:40:30;24.35;;;15.35;;
29916;SDS011;16786;49.466;11.068;2024-01-30T11:42:59;18.90;;;15.02;;
29916;SDS011;16786;49.466;11.068;2024-01-30T11:45:27;24.83;;;16.45;;
29916;SDS011;16786;49.466;11.068;2024-01-30T11:47:55;28.73;;;20.02;;
29916;SDS011;16786;49.466;11.068;2024-01-30T11:50:22;20.73;;;15.65;;
29916;SDS011;16786;49.466;11.068;2024-01-30T11:52:51;22.13;;;15.23;;
29916;SDS011;16786;49.466;11.068;2024-01-30T11:55:18;19.55;;;15.13;;
29916;SDS011;16786;49.466;11.068;2024-01-30T11:57:46;21.17;;;15.25;;
29916;SDS011;16786;49.466;11.068;2024-01-30T12:00:16;22.17;;;15.90;;
29916;SDS011;16786;49.466;11.068;2024-01-30T12:02:49;25.35;;;15.95;;
29916;SDS011;16786;49.466;11.068;2024-01-30T12:05:18;20.95;;;15.20;;
29916;SDS011;16786;49.466;11.068;2024-01-30T12:07:46;20.77;;;15.27;;
29916;SDS011;16786;49.466;11.068;2024-01-30T12:10:14;19.17;;;14.55;;
29916;SDS011;16786;49.466;11.068;2024-01-30T12:12:42;20.90;;;16.17;;
29916;SDS011;16786;49.466;11.068;2024-01-30T12:15:12;25.85;;;17.00;;
29916;SDS011;16786;49.466;11.068;2024-01-30T12:17:40;19.85;;;14.73;;
29916;SDS011;16786;49.466;11.068;2024-01-30T12:20:29;19.05;;;14.82;;
29916;SDS011;16786;49.466;11.068;2024-01-30T12:22:55;20.75;;;16.38;;
29916;SDS011;16786;49.466;11.068;2024-01-30T12:25:22;23.13;;;16.30;;
29916;SDS011;16786;49.466;11.068;2024-01-30T12:27:50;26.20;;;17.92;;
29916;SDS011;16786;49.466;11.068;2024-01-30T12:30:19;22.33;;;18.05;;
29916;SDS011;16786;49.466;11.068;2024-01-30T12:32:49;25.27;;;16.27;;
29916;SDS011;16786;49.466;11.068;2024-01-30T12:35:18;20.27;;;14.82;;
29916;SDS011;16786;49.466;11.068;2024-01-30T12:37:47;22.67;;;15.05;;
29916;SDS011;16786;49.466;11.068;2024-01-30T12:40:15;19.92;;;15.52;;
29916;SDS011;16786;49.466;11.068;2024-01-30T12:42:43;20.08;;;15.48;;
29916;SDS011;16786;49.466;11.068;2024-01-30T12:45:16;19.52;;;15.13;;
29916;SDS011;16786;49.466;11.068;2024-01-30T12:47:47;19.88;;;14.60;;
29916;SDS011;16786;49.466;11.068;2024-01-30T12:50:14;17.83;;;14.48;;
29916;SDS011;16786;49.466;11.068;2024-01-30T12:52:43;17.25;;;13.82;;
29916;SDS011;16786;49.466;11.068;2024-01-30T12:55:15;18.77;;;13.80;;
29916;SDS011;16786;49.466;11.068;2024-01-30T12:57:42;17.70;;;15.23;;
29916;SDS011;16786;49.466;11.068;2024-01-30T13:00:09;20.05;;;14.95;;
29916;SDS011;16786;49.466;11.068;2024-01-30T13:02:37;19.77;;;15.07;;
29916;SDS011;16786;49.466;11.068;2024-01-30T13:05:04;23.95;;;16.38;;
29916;SDS011;16786;49.466;11.068;2024-01-30T13:07:32;21.90;;;16.17;;
29916;SDS011;16786;49.466;11.068;2024-01-30T13:09:59;20.42;;;15.05;;
29916;SDS011;16786;49.466;11.068;2024-01-30T13:12:30;15.88;;;13.65;;
29916;SDS011;16786;49.466;11.068;2024-01-30T13:14:58;21.88;;;15.30;;
29916;SDS011;16786;49.466;11.068;2024-01-30T13:17:27;15.45;;;13.52;;
29916;SDS011;16786;49.466;11.068;2024-01-30T13:19:55;20.23;;;14.02;;
29916;SDS011;16786;49.466;11.068;2024-01-30T13:22:33;20.58;;;15.23;;
29916;SDS011;16786;49.466;11.068;2024-01-30T13:25:00;21.23;;;14.55;;
29916;SDS011;16786;49.466;11.068;2024-01-30T13:27:28;22.58;;;14.32;;
29916;SDS011;16786;49.466;11.068;2024-01-30T13:29:55;24.38;;;15.50;;
29916;SDS011;16786;49.466;11.068;2024-01-30T13:32:22;17.30;;;14.02;;
29916;SDS011;16786;49.466;11.068;2024-01-30T13:34:48;15.45;;;13.60;;
29916;SDS011;16786;49.466;11.068;2024-01-30T13:37:16;18.85;;;14.40;;
29916;SDS011;16786;49.466;11.068;2024-01-30T13:39:43;19.20;;;14.68;;
29916;SDS011;16786;49.466;11.068;2024-01-30T13:42:10;20.48;;;14.90;;
29916;SDS011;16786;49.466;11.068;2024-01-30T13:44:37;20.70;;;16.05;;
29916;SDS011;16786;49.466;11.068;2024-01-30T13:47:04;21.55;;;15.90;;
29916;SDS011;16786;49.466;11.068;2024-01-30T13:49:32;18.75;;;14.55;;
29916;SDS011;16786;49.466;11.068;2024-01-30T13:51:59;17.90;;;14.50;;
29916;SDS011;16786;49.466;11.068;2024-01-30T13:54:26;17.80;;;14.82;;
29916;SDS011;16786;49.466;11.068;2024-01-30T13:56:53;18.83;;;14.75;;
29916;SDS011;16786;49.466;11.068;2024-01-30T13:59:20;20.88;;;14.90;;
29916;SDS011;16786;49.466;11.068;2024-01-30T14:01:51;21.52;;;14.43;;
29916;SDS011;16786;49.466;11.068;2024-01-30T14:04:18;18.40;;;14.48;;
29916;SDS011;16786;49.466;11.068;2024-01-30T14:06:45;20.27;;;13.55;;
29916;SDS011;16786;49.466;11.068;2024-01-30T14:09:26;20.50;;;15.10;;
29916;SDS011;16786;49.466;11.068;2024-01-30T14:11:53;21.45;;;15.07;;
29916;SDS011;16786;49.466;11.068;2024-01-30T14:14:20;20.90;;;15.95;;
29916;SDS011;16786;49.466;11.068;2024-01-30T14:16:47;22.25;;;15.27;;
29916;SDS011;16786;49.466;11.068;2024-01-30T14:19:14;21.60;;;14.88;;
29916;SDS011;16786;49.466;11.068;2024-01-30T14:21:41;22.90;;;15.43;;